Airfield :
LOGIN :

Register | Disclaimer

   EN    FR    IT 

 










Legend :    VFR   Marginal VFR   IFR   Intensive IFR   Very Intensive IFR
Visi :
Ceiling :
>= 8 km
>= 3000ft
5 to 8 km
1000 to 3000 ft
1500m to 5 km
500 to 1000 ft
800 to 1500m
200 to 500 ft
< 800m
< 200 ft
Symbols :   Thunderstorms  Fog  Heavy snow  Heavy precipitations  Wind > 20 kt
SIGMETs :     Misc.  Thunderstorms  Icing  Turbulence  Mountain Waves  Volcanic Ashes






- Airport Elevation : 915 ft
- IATA code : LUG


LSZA - Lugano

CURRENT METAR :
  • 270220Z AUTO 02003KT 360V070 9999 FEW041TCU SCT048 OVC075 18/17 Q1016

EXPIRED METARs :
  • 270150Z AUTO VRB02KT 9999 FEW050TCU SCT060 BKN075 17/17 Q1017 RETS
  • 270120Z AUTO VRB02KT 9999 TS BKN050CB 18/17 Q1017 RETSRA
  • 270050Z AUTO 03003KT 330V130 9999 -TSRA SCT050CB SCT060 BKN070 18/17 Q1017
  • 270020Z AUTO VRB02KT 9999 -TSRA OVC050CB 18/17 Q1017 RETS
  • 262350Z AUTO 35004KT 320V020 9999 TS BKN050CB 18/17 Q1017 RETSRA

TAF TAF LSZA
Valid from the 27 at 03:00 until the 27 at 12:00 UTC


270225Z 2703/2712 VRB02KT 9999 FEW050 BKN070
PROB40
TEMPO 2703/2712 SHRA SCT030TCU
ATIS : +41 22 417 40 88



MET'MAP, your aeronautical weather chart ! - Copyright ORBIFLY December 2007 - Disclaimer

ORBIFLY MET'MAP TEAM :

Programming & Development : Alexandra Zaïnal
Concept & original design : Baudouin d'Aumeries
Assistance for programming : Marc-Olivier Méhu
Technical & hardware support : Manuel Goepfert

Contact : metmap@orbifly.com




SOURCES & CREDITS :

   NOAA